createdAt,value
2019-03-10T00:02:37.232Z,3.35
2019-03-10T00:05:25.282Z,3.49
2019-03-10T00:08:13.439Z,3.49
2019-03-10T00:11:01.793Z,3.35
2019-03-10T00:13:50.169Z,3.56
2019-03-10T00:16:38.147Z,3.33
2019-03-10T00:19:26.526Z,2.78
2019-03-10T00:22:15.130Z,2.69
2019-03-10T00:25:02.948Z,2.96
2019-03-10T00:27:50.981Z,3.03
2019-03-10T00:30:38.708Z,2.88
2019-03-10T00:33:26.417Z,3.11
2019-03-10T00:36:14.904Z,2.83
2019-03-10T00:39:07.263Z,2.06
2019-03-10T00:42:13.629Z,2.31
2019-03-10T00:45:19.568Z,2.60
2019-03-10T00:48:39.025Z,2.73
2019-03-10T00:51:44.548Z,2.96
2019-03-10T00:54:33.453Z,3.08
2019-03-10T00:57:21.520Z,3.21
2019-03-10T01:00:15.442Z,3.03
2019-03-10T01:03:03.411Z,2.76
2019-03-10T01:05:51.880Z,2.21
2019-03-10T01:08:39.686Z,2.50
2019-03-10T01:11:28.221Z,1.97
2019-03-10T01:14:15.889Z,1.92
2019-03-10T01:17:03.883Z,2.21
2019-03-10T01:19:52.424Z,2.52
2019-03-10T01:22:40.312Z,2.78
2019-03-10T01:25:28.154Z,2.87
2019-03-10T01:28:16.540Z,2.99
2019-03-10T01:31:17.433Z,3.19
2019-03-10T01:34:40.176Z,2.88
2019-03-10T01:37:27.674Z,2.42
2019-03-10T01:40:15.506Z,2.64
2019-03-10T01:43:02.928Z,2.60
2019-03-10T01:45:51.241Z,2.60
2019-03-10T01:48:39.582Z,2.29
2019-03-10T01:51:28.012Z,2.10
2019-03-10T01:54:16.068Z,2.11
2019-03-10T01:57:05.650Z,1.86
2019-03-10T01:59:54.165Z,2.06
2019-03-10T02:02:41.678Z,2.42
2019-03-10T02:05:29.780Z,2.41
2019-03-10T02:08:18.245Z,2.15
2019-03-10T02:11:06.637Z,2.33
2019-03-10T02:13:54.677Z,2.53
2019-03-10T02:16:43.067Z,2.60
2019-03-10T02:19:31.060Z,2.70
2019-03-10T02:22:19.802Z,2.27
2019-03-10T02:25:08.326Z,2.44
2019-03-10T02:27:56.744Z,1.97
2019-03-10T02:30:44.791Z,2.00
2019-03-10T02:33:32.775Z,2.03
2019-03-10T02:36:20.987Z,2.05
2019-03-10T02:39:09.411Z,2.34
2019-03-10T02:41:57.503Z,2.39
2019-03-10T02:44:45.699Z,2.30
2019-03-10T02:47:33.936Z,2.35
2019-03-10T02:50:21.950Z,1.78
2019-03-10T02:53:10.408Z,1.57
2019-03-10T02:55:58.301Z,1.86
2019-03-10T02:58:47.492Z,1.99
2019-03-10T03:01:35.635Z,2.17
2019-03-10T03:04:23.623Z,2.24
2019-03-10T03:07:11.773Z,2.38
2019-03-10T03:09:59.539Z,2.39
2019-03-10T03:12:47.839Z,2.31
2019-03-10T03:15:35.604Z,2.33
2019-03-10T03:18:23.650Z,2.36
2019-03-10T03:21:12.125Z,2.37
2019-03-10T03:24:00.633Z,2.35
2019-03-10T03:26:49.015Z,2.34
2019-03-10T03:29:37.396Z,2.29
2019-03-10T03:32:25.489Z,2.09
2019-03-10T03:35:31.912Z,2.14
2019-03-10T03:38:22.051Z,2.29
2019-03-10T03:41:11.184Z,2.48
2019-03-10T03:43:58.953Z,2.63
2019-03-10T03:46:47.118Z,2.77
2019-03-10T03:49:34.952Z,2.86
2019-03-10T03:52:23.448Z,2.50
2019-03-10T03:55:11.639Z,2.70
2019-03-10T03:57:59.680Z,2.62
2019-03-10T04:00:52.853Z,2.54
2019-03-10T04:03:40.300Z,2.50
2019-03-10T04:06:28.463Z,3.00
2019-03-10T04:09:16.745Z,3.39
2019-03-10T04:12:05.194Z,4.04
2019-03-10T04:14:52.672Z,4.75
2019-03-10T04:17:41.214Z,6.38
2019-03-10T04:20:29.163Z,6.93
2019-03-10T04:23:16.915Z,6.89
2019-03-10T04:26:05.249Z,6.84
2019-03-10T04:28:53.130Z,6.87
2019-03-10T04:31:41.433Z,6.66
2019-03-10T04:34:29.837Z,6.42
2019-03-10T04:37:18.202Z,5.47
2019-03-10T04:40:06.968Z,4.98
2019-03-10T04:42:55.442Z,5.67
2019-03-10T04:45:43.892Z,6.74
2019-03-10T04:48:31.987Z,7.28
2019-03-10T04:51:20.851Z,7.48
2019-03-10T04:54:09.046Z,7.33
2019-03-10T04:57:06.393Z,7.14
2019-03-10T04:59:54.240Z,6.99
2019-03-10T05:02:44.015Z,6.74
2019-03-10T05:05:32.117Z,6.10
2019-03-10T05:08:20.155Z,5.33
2019-03-10T05:11:08.062Z,4.78
2019-03-10T05:13:56.281Z,4.21
2019-03-10T05:16:44.780Z,4.09
2019-03-10T05:19:32.976Z,4.00
2019-03-10T05:22:21.354Z,3.79
2019-03-10T05:25:09.442Z,3.67
2019-03-10T05:27:57.864Z,3.72
2019-03-10T05:30:46.307Z,3.84
2019-03-10T05:33:34.353Z,4.00
2019-03-10T05:36:22.828Z,4.61
2019-03-10T05:39:11.122Z,6.19
2019-03-10T05:41:59.232Z,7.47
2019-03-10T05:44:50.429Z,8.18
2019-03-10T05:47:38.784Z,9.09
2019-03-10T05:50:26.925Z,9.50
2019-03-10T05:53:15.430Z,9.86
2019-03-10T05:56:03.571Z,10.09
2019-03-10T05:58:51.777Z,10.22
2019-03-10T06:01:39.510Z,10.40
2019-03-10T06:04:29.228Z,10.52
2019-03-10T06:07:17.853Z,10.66
2019-03-10T06:10:07.118Z,10.95
2019-03-10T06:12:56.357Z,11.02
2019-03-10T06:15:45.630Z,11.25
2019-03-10T06:18:34.830Z,11.49
2019-03-10T06:21:24.255Z,11.40
2019-03-10T06:24:13.951Z,11.56
2019-03-10T06:27:03.210Z,11.65
2019-03-10T06:29:51.464Z,11.75
2019-03-10T06:32:39.177Z,11.73
2019-03-10T06:35:27.648Z,11.87
2019-03-10T06:38:16.194Z,11.99
2019-03-10T06:41:05.619Z,12.16
2019-03-10T06:43:55.498Z,12.41
2019-03-10T06:46:44.258Z,12.33
2019-03-10T06:49:33.285Z,12.22
2019-03-10T06:52:22.740Z,12.28
2019-03-10T06:55:12.211Z,12.41
2019-03-10T06:58:02.012Z,12.48
2019-03-10T07:00:51.356Z,12.55
2019-03-10T07:03:40.448Z,12.47
2019-03-10T07:06:30.594Z,12.62
2019-03-10T07:09:19.923Z,12.54
2019-03-10T07:12:10.443Z,12.47
2019-03-10T07:15:00.212Z,12.72
2019-03-10T07:17:49.431Z,12.87
2019-03-10T07:20:38.784Z,12.87
2019-03-10T07:23:28.301Z,12.79
2019-03-10T07:26:17.755Z,12.61
2019-03-10T07:29:29.164Z,12.69
2019-03-10T07:32:37.294Z,12.66
2019-03-10T07:35:44.171Z,12.66
2019-03-10T07:38:40.967Z,12.63
2019-03-10T07:41:48.358Z,12.70
2019-03-10T07:45:14.971Z,12.48
2019-03-10T07:48:25.869Z,12.49
2019-03-10T07:51:31.121Z,12.58
2019-03-10T07:54:38.156Z,12.67
2019-03-10T07:57:43.700Z,12.91
2019-03-10T08:00:51.757Z,12.92
2019-03-10T08:03:55.197Z,13.11
2019-03-10T08:06:51.151Z,13.06
2019-03-10T08:10:12.175Z,13.24
2019-03-10T08:13:14.164Z,13.30
2019-03-10T08:16:28.553Z,13.33
2019-03-10T08:19:42.797Z,13.53
2019-03-10T08:23:02.709Z,13.70
2019-03-10T08:26:00.808Z,13.79
2019-03-10T08:29:12.124Z,13.89
2019-03-10T08:32:20.913Z,13.87
2019-03-10T08:35:32.151Z,14.06
2019-03-10T08:38:43.229Z,14.34
2019-03-10T08:42:00.212Z,14.14
2019-03-10T08:45:03.975Z,14.24
2019-03-10T08:48:16.784Z,14.44
2019-03-10T08:51:24.644Z,14.14
2019-03-10T08:54:18.703Z,14.44
2019-03-10T08:57:25.330Z,14.49
2019-03-10T09:00:37.830Z,14.31
2019-03-10T09:03:55.102Z,14.70
2019-03-10T09:07:03.548Z,14.52
2019-03-10T09:10:17.954Z,14.49
2019-03-10T09:13:31.562Z,14.57
2019-03-10T09:16:43.595Z,14.47
2019-03-10T09:19:52.110Z,14.79
2019-03-10T09:22:53.091Z,14.94
2019-03-10T09:25:56.292Z,15.18
2019-03-10T09:29:02.911Z,15.12
2019-03-10T09:32:16.833Z,15.20
2019-03-10T09:35:20.175Z,15.43
2019-03-10T09:38:19.749Z,15.32
2019-03-10T09:41:21.550Z,15.55
2019-03-10T09:44:28.352Z,15.68
2019-03-10T09:47:29.276Z,15.52
2019-03-10T09:50:43.632Z,15.32
2019-03-10T09:53:58.093Z,15.51
2019-03-10T09:57:03.405Z,15.95
2019-03-10T10:00:13.899Z,15.77
2019-03-10T10:03:11.526Z,16.13
2019-03-10T10:06:18.753Z,16.08
2019-03-10T10:09:45.822Z,16.31
2019-03-10T10:12:46.353Z,16.17
2019-03-10T10:15:53.699Z,16.17
2019-03-10T10:19:05.003Z,16.32
2019-03-10T10:22:13.885Z,16.41
2019-03-10T10:25:17.378Z,16.68
2019-03-10T10:28:15.355Z,16.48
2019-03-10T10:31:15.272Z,16.92
2019-03-10T10:34:23.281Z,16.87
2019-03-10T10:37:40.403Z,17.06
2019-03-10T10:40:48.279Z,16.65
2019-03-10T10:44:05.866Z,16.68
2019-03-10T10:47:06.639Z,16.73
2019-03-10T10:50:23.968Z,17.12
2019-03-10T10:53:25.954Z,17.29
2019-03-10T10:56:32.366Z,17.53
2019-03-10T10:59:40.526Z,17.29
2019-03-10T11:02:38.954Z,17.97
2019-03-10T11:05:35.559Z,17.84
2019-03-10T11:08:38.442Z,18.08
2019-03-10T11:11:45.599Z,18.17
2019-03-10T11:14:57.039Z,17.88
2019-03-10T11:18:17.219Z,17.97
2019-03-10T11:21:21.311Z,18.34
2019-03-10T11:24:26.375Z,17.93
2019-03-10T11:27:27.408Z,18.10
2019-03-10T11:30:41.896Z,18.15
2019-03-10T11:33:49.093Z,18.22
2019-03-10T11:37:04.561Z,18.43
2019-03-10T11:40:03.371Z,18.51
2019-03-10T11:43:10.061Z,18.25
2019-03-10T11:46:29.889Z,18.51
2019-03-10T11:49:36.798Z,18.64
2019-03-10T11:52:44.794Z,18.76
2019-03-10T11:55:53.843Z,18.66
2019-03-10T11:58:57.394Z,18.71
2019-03-10T12:02:15.996Z,18.45
2019-03-10T12:05:18.422Z,18.23
2019-03-10T12:08:32.150Z,18.42
2019-03-10T12:11:20.940Z,18.64
2019-03-10T12:14:10.189Z,18.90
2019-03-10T12:16:59.473Z,18.29
2019-03-10T12:19:48.794Z,18.46
2019-03-10T12:22:38.200Z,18.37
2019-03-10T12:25:28.771Z,18.32
2019-03-10T12:28:18.146Z,18.62
2019-03-10T12:31:07.574Z,18.40
2019-03-10T12:33:56.953Z,18.56
2019-03-10T12:36:46.337Z,18.74
2019-03-10T12:39:36.044Z,18.77
2019-03-10T12:42:25.541Z,18.95
2019-03-10T12:45:14.802Z,18.92
2019-03-10T12:48:04.239Z,18.84
2019-03-10T12:50:53.799Z,19.10
2019-03-10T12:53:42.977Z,19.11
2019-03-10T12:56:32.544Z,19.04
2019-03-10T12:59:21.805Z,19.38
2019-03-10T13:02:11.301Z,19.52
2019-03-10T13:05:00.748Z,19.48
2019-03-10T13:07:50.092Z,18.82
2019-03-10T13:10:39.308Z,19.19
2019-03-10T13:13:28.954Z,19.63
2019-03-10T13:16:17.785Z,19.52
2019-03-10T13:19:06.876Z,19.43
2019-03-10T13:21:56.117Z,19.71
2019-03-10T13:24:45.611Z,19.67
2019-03-10T13:27:34.984Z,19.98
2019-03-10T13:30:23.772Z,20.41
2019-03-10T13:33:12.819Z,20.59
2019-03-10T13:36:02.141Z,20.51
2019-03-10T13:38:51.526Z,21.18
2019-03-10T13:41:40.923Z,21.41
2019-03-10T13:44:30.381Z,22.07
2019-03-10T13:47:19.885Z,22.49
2019-03-10T13:50:10.843Z,22.43
2019-03-10T13:53:00.124Z,23.28
2019-03-10T13:55:49.326Z,23.64
2019-03-10T13:58:39.020Z,22.82
2019-03-10T14:01:28.308Z,23.30
2019-03-10T14:04:17.343Z,24.57
2019-03-10T14:07:06.892Z,23.87
2019-03-10T14:09:56.699Z,23.90
2019-03-10T14:12:46.133Z,24.87
2019-03-10T14:15:35.447Z,25.64
2019-03-10T14:18:24.867Z,26.23
2019-03-10T14:21:13.681Z,24.77
2019-03-10T14:24:02.897Z,24.63
2019-03-10T14:26:52.202Z,25.27
2019-03-10T14:29:42.622Z,25.88
2019-03-10T14:32:32.243Z,26.21
2019-03-10T14:35:21.624Z,26.57
2019-03-10T14:38:10.951Z,27.11
2019-03-10T14:41:00.372Z,27.71
2019-03-10T14:43:49.627Z,26.85
2019-03-10T14:46:38.899Z,26.42
2019-03-10T14:49:28.157Z,25.76
2019-03-10T14:52:17.125Z,25.59
2019-03-10T14:55:07.281Z,25.01
2019-03-10T14:57:56.813Z,23.25
2019-03-10T15:00:45.657Z,22.04
2019-03-10T15:03:34.996Z,21.10
2019-03-10T15:06:32.233Z,20.97
2019-03-10T15:09:21.829Z,21.06
2019-03-10T15:12:11.451Z,20.68
2019-03-10T15:15:00.968Z,20.32
2019-03-10T15:17:50.334Z,19.87
2019-03-10T15:20:39.891Z,19.37
2019-03-10T15:23:29.605Z,19.01
2019-03-10T15:26:19.098Z,18.74
2019-03-10T15:29:08.696Z,18.73
2019-03-10T15:31:57.997Z,18.46
2019-03-10T15:34:46.875Z,17.89
2019-03-10T15:37:36.332Z,17.39
2019-03-10T15:40:26.197Z,17.25
2019-03-10T15:43:17.108Z,17.12
2019-03-10T15:46:10.135Z,16.77
2019-03-10T15:48:59.706Z,16.74
2019-03-10T15:51:48.570Z,16.60
2019-03-10T15:54:37.831Z,16.25
2019-03-10T15:57:27.179Z,15.98
2019-03-10T16:00:18.080Z,15.82
2019-03-10T16:03:07.144Z,15.62
2019-03-10T16:05:56.630Z,14.97
2019-03-10T16:08:45.669Z,14.88
2019-03-10T16:11:35.237Z,14.61
2019-03-10T16:14:24.562Z,14.30
2019-03-10T16:17:13.834Z,14.14
2019-03-10T16:20:02.935Z,14.00
2019-03-10T16:22:52.243Z,13.90
2019-03-10T16:25:41.452Z,13.77
2019-03-10T16:28:31.013Z,13.76
2019-03-10T16:31:20.348Z,13.77
2019-03-10T16:34:09.574Z,13.82
2019-03-10T16:37:02.233Z,13.53
2019-03-10T16:39:50.847Z,13.37
2019-03-10T16:42:40.113Z,13.09
2019-03-10T16:45:29.404Z,13.03
2019-03-10T16:48:17.427Z,13.09
2019-03-10T16:51:05.840Z,13.01
2019-03-10T16:53:54.243Z,13.06
2019-03-10T16:56:42.120Z,12.98
2019-03-10T16:59:34.387Z,12.75
2019-03-10T17:02:26.703Z,12.74
2019-03-10T17:05:15.911Z,12.48
2019-03-10T17:08:04.451Z,12.20
2019-03-10T17:10:53.556Z,11.92
2019-03-10T17:13:42.885Z,11.27
2019-03-10T17:16:32.815Z,10.89
2019-03-10T17:19:22.504Z,10.99
2019-03-10T17:22:11.145Z,11.20
2019-03-10T17:24:59.500Z,11.58
2019-03-10T17:27:47.962Z,11.53
2019-03-10T17:30:36.340Z,11.45
2019-03-10T17:33:24.512Z,11.53
2019-03-10T17:36:12.939Z,11.44
2019-03-10T17:39:00.679Z,11.39
2019-03-10T17:41:48.689Z,11.32
2019-03-10T17:44:41.107Z,11.31
2019-03-10T17:47:27.341Z,10.98
2019-03-10T17:50:15.179Z,10.10
2019-03-10T17:53:02.684Z,10.16
2019-03-10T17:55:52.127Z,10.35
2019-03-10T17:58:40.239Z,10.30
2019-03-10T18:01:27.727Z,10.41
2019-03-10T18:04:15.804Z,10.62
2019-03-10T18:07:04.161Z,10.41
2019-03-10T18:09:52.283Z,10.66
2019-03-10T18:12:40.070Z,10.55
2019-03-10T18:15:28.216Z,10.67
2019-03-10T18:18:15.932Z,10.67
2019-03-10T18:21:04.129Z,10.48
2019-03-10T18:23:52.238Z,10.35
2019-03-10T18:26:40.627Z,10.21
2019-03-10T18:29:28.409Z,10.17
2019-03-10T18:32:16.962Z,10.06
2019-03-10T18:35:05.452Z,9.91
2019-03-10T18:37:58.861Z,9.90
2019-03-10T18:40:47.455Z,9.58
2019-03-10T18:43:35.831Z,9.67
2019-03-10T18:46:23.559Z,9.62
2019-03-10T18:49:12.954Z,9.61
2019-03-10T18:52:00.802Z,9.15
2019-03-10T18:54:48.941Z,9.15
2019-03-10T18:57:37.507Z,9.21
2019-03-10T19:00:25.787Z,9.08
2019-03-10T19:03:14.206Z,8.84
2019-03-10T19:06:02.281Z,8.70
2019-03-10T19:08:50.337Z,8.68
2019-03-10T19:11:38.868Z,8.47
2019-03-10T19:14:26.990Z,8.47
2019-03-10T19:17:15.447Z,8.51
2019-03-10T19:20:03.934Z,8.04
2019-03-10T19:22:52.284Z,8.18
2019-03-10T19:25:40.668Z,8.29
2019-03-10T19:28:28.670Z,8.41
2019-03-10T19:31:17.111Z,8.26
2019-03-10T19:34:05.687Z,8.17
2019-03-10T19:36:57.278Z,8.29
2019-03-10T19:39:42.858Z,8.12
2019-03-10T19:42:31.239Z,7.17
2019-03-10T19:45:20.256Z,7.33
2019-03-10T19:48:08.502Z,7.54
2019-03-10T19:50:56.819Z,7.57
2019-03-10T19:53:45.165Z,7.56
2019-03-10T19:56:33.189Z,7.73
2019-03-10T19:59:21.837Z,7.73
2019-03-10T20:02:10.378Z,7.74
2019-03-10T20:04:59.036Z,7.77
2019-03-10T20:07:48.195Z,7.33
2019-03-10T20:10:36.257Z,6.96
2019-03-10T20:13:24.628Z,6.71
2019-03-10T20:16:12.841Z,6.41
2019-03-10T20:19:01.223Z,6.52
2019-03-10T20:21:52.972Z,6.68
2019-03-10T20:24:41.256Z,6.80
2019-03-10T20:27:29.340Z,6.69
2019-03-10T20:30:19.342Z,6.49
2019-03-10T20:33:10.961Z,6.27
2019-03-10T20:35:59.061Z,6.15
2019-03-10T20:38:47.815Z,5.92
2019-03-10T20:41:35.807Z,5.99
2019-03-10T20:44:23.781Z,6.29
2019-03-10T20:47:14.531Z,5.83
2019-03-10T20:50:10.059Z,5.99
2019-03-10T20:52:57.760Z,5.82
2019-03-10T20:55:48.283Z,5.93
2019-03-10T20:58:35.948Z,6.16
2019-03-10T21:01:24.217Z,6.09
2019-03-10T21:04:12.454Z,6.16
2019-03-10T21:07:00.596Z,6.18
2019-03-10T21:09:48.889Z,5.16
2019-03-10T21:12:41.836Z,5.25
2019-03-10T21:15:26.797Z,5.52
2019-03-10T21:18:15.331Z,5.60
2019-03-10T21:21:05.518Z,5.78
2019-03-10T21:23:55.302Z,5.57
2019-03-10T21:26:42.870Z,4.91
2019-03-10T21:29:31.135Z,5.06
2019-03-10T21:32:19.260Z,5.22
2019-03-10T21:35:17.225Z,5.00
2019-03-10T21:37:56.864Z,4.77
2019-03-10T21:40:44.495Z,4.89
2019-03-10T21:43:32.930Z,4.83
2019-03-10T21:46:20.590Z,5.04
2019-03-10T21:49:08.385Z,4.88
2019-03-10T21:51:56.146Z,4.74
2019-03-10T21:54:44.570Z,4.60
2019-03-10T21:57:34.992Z,4.73
2019-03-10T22:00:22.778Z,4.05
2019-03-10T22:03:10.489Z,4.11
2019-03-10T22:05:58.479Z,4.40
2019-03-10T22:08:46.604Z,4.25
2019-03-10T22:11:34.181Z,4.33
2019-03-10T22:14:22.676Z,4.53
2019-03-10T22:17:11.013Z,4.49
2019-03-10T22:19:58.700Z,4.25
2019-03-10T22:22:49.543Z,4.13
2019-03-10T22:25:37.066Z,3.86
2019-03-10T22:28:25.431Z,3.64
2019-03-10T22:31:13.479Z,3.67
2019-03-10T22:34:01.554Z,3.89
2019-03-10T22:36:52.194Z,4.06
2019-03-10T22:39:40.506Z,4.33
2019-03-10T22:42:29.208Z,4.62
2019-03-10T22:45:17.418Z,4.67
2019-03-10T22:48:06.770Z,4.72
2019-03-10T22:50:54.908Z,4.55
2019-03-10T22:53:42.911Z,4.54
2019-03-10T22:56:31.231Z,4.22
2019-03-10T22:59:21.422Z,4.33
2019-03-10T23:02:09.639Z,4.25
2019-03-10T23:04:57.517Z,3.88
2019-03-10T23:07:46.109Z,3.74
2019-03-10T23:10:34.420Z,3.77
2019-03-10T23:13:24.728Z,3.95
2019-03-10T23:16:12.707Z,4.00
2019-03-10T23:19:00.579Z,3.66
2019-03-10T23:21:48.932Z,4.11
2019-03-10T23:24:37.219Z,3.48
2019-03-10T23:27:25.354Z,3.11
2019-03-10T23:30:14.067Z,3.28
2019-03-10T23:33:02.713Z,3.57
2019-03-10T23:35:51.073Z,3.73
2019-03-10T23:38:39.485Z,4.13
2019-03-10T23:41:27.107Z,3.83
2019-03-10T23:44:15.780Z,3.29
2019-03-10T23:47:03.819Z,3.25
2019-03-10T23:49:52.239Z,3.38
2019-03-10T23:52:40.627Z,3.64
2019-03-10T23:55:28.860Z,3.78
2019-03-10T23:58:16.868Z,3.94
